sensor_id;sensor_type;location;lat;lon;timestamp;pressure;altitude;pressure_sealevel;temperature;humidity
7052;BME280;3567;52.444;13.556;2023-09-19T00:00:16;100275.56;;;17.74;100.00
7052;BME280;3567;52.444;13.556;2023-09-19T00:02:45;100277.72;;;17.72;100.00
7052;BME280;3567;52.444;13.556;2023-09-19T00:05:12;100280.47;;;17.67;100.00
7052;BME280;3567;52.444;13.556;2023-09-19T00:07:37;100277.53;;;17.64;100.00
7052;BME280;3567;52.444;13.556;2023-09-19T00:10:03;100284.91;;;17.58;100.00
7052;BME280;3567;52.444;13.556;2023-09-19T00:12:29;100281.16;;;17.54;100.00
7052;BME280;3567;52.444;13.556;2023-09-19T00:14:55;100279.00;;;17.51;100.00
7052;BME280;3567;52.444;13.556;2023-09-19T00:17:22;100276.34;;;17.46;100.00
7052;BME280;3567;52.444;13.556;2023-09-19T00:19:47;100276.91;;;17.43;100.00
7052;BME280;3567;52.444;13.556;2023-09-19T00:22:16;100274.78;;;17.40;100.00
7052;BME280;3567;52.444;13.556;2023-09-19T00:24:44;100269.94;;;17.37;100.00
7052;BME280;3567;52.444;13.556;2023-09-19T00:27:09;100264.28;;;17.33;100.00
7052;BME280;3567;52.444;13.556;2023-09-19T00:29:34;100262.13;;;17.30;100.00
7052;BME280;3567;52.444;13.556;2023-09-19T00:32:00;100267.03;;;17.28;100.00
7052;BME280;3567;52.444;13.556;2023-09-19T00:34:28;100258.41;;;17.26;100.00
7052;BME280;3567;52.444;13.556;2023-09-19T00:36:54;100261.38;;;17.24;100.00
7052;BME280;3567;52.444;13.556;2023-09-19T00:39:20;100262.75;;;17.22;100.00
7052;BME280;3567;52.444;13.556;2023-09-19T00:41:47;100260.31;;;17.20;100.00
7052;BME280;3567;52.444;13.556;2023-09-19T00:44:12;100263.84;;;17.21;100.00
7052;BME280;3567;52.444;13.556;2023-09-19T00:46:38;100257.91;;;17.19;100.00
7052;BME280;3567;52.444;13.556;2023-09-19T00:49:03;100256.28;;;17.18;100.00
7052;BME280;3567;52.444;13.556;2023-09-19T00:51:29;100258.47;;;17.16;100.00
7052;BME280;3567;52.444;13.556;2023-09-19T00:53:54;100257.69;;;17.15;100.00
7052;BME280;3567;52.444;13.556;2023-09-19T00:56:20;100258.22;;;17.12;100.00
7052;BME280;3567;52.444;13.556;2023-09-19T00:58:46;100265.84;;;17.10;100.00
7052;BME280;3567;52.444;13.556;2023-09-19T01:01:12;100256.38;;;17.08;100.00
7052;BME280;3567;52.444;13.556;2023-09-19T01:03:40;100260.97;;;17.07;100.00
7052;BME280;3567;52.444;13.556;2023-09-19T01:06:06;100262.38;;;17.05;100.00
7052;BME280;3567;52.444;13.556;2023-09-19T01:08:32;100266.13;;;17.03;100.00
7052;BME280;3567;52.444;13.556;2023-09-19T01:11:06;100258.81;;;17.04;100.00
7052;BME280;3567;52.444;13.556;2023-09-19T01:16:45;100258.31;;;17.02;100.00
7052;BME280;3567;52.444;13.556;2023-09-19T01:25:02;100260.47;;;17.05;100.00
7052;BME280;3567;52.444;13.556;2023-09-19T01:30:32;100261.53;;;17.04;100.00
7052;BME280;3567;52.444;13.556;2023-09-19T01:32:58;100263.19;;;17.05;100.00
7052;BME280;3567;52.444;13.556;2023-09-19T01:35:24;100264.78;;;17.06;100.00
7052;BME280;3567;52.444;13.556;2023-09-19T01:37:50;100260.47;;;17.05;100.00
7052;BME280;3567;52.444;13.556;2023-09-19T01:40:18;100262.06;;;17.06;100.00
7052;BME280;3567;52.444;13.556;2023-09-19T01:43:05;100262.06;;;17.06;100.00
7052;BME280;3567;52.444;13.556;2023-09-19T01:45:59;100269.38;;;17.06;100.00
7052;BME280;3567;52.444;13.556;2023-09-19T01:48:33;100271.81;;;17.07;100.00
7052;BME280;3567;52.444;13.556;2023-09-19T01:51:06;100269.63;;;17.09;100.00
7052;BME280;3567;52.444;13.556;2023-09-19T01:53:43;100266.09;;;17.09;100.00
7052;BME280;3567;52.444;13.556;2023-09-19T01:56:19;100262.84;;;17.12;100.00
7052;BME280;3567;52.444;13.556;2023-09-19T01:58:52;100269.06;;;17.12;100.00
7052;BME280;3567;52.444;13.556;2023-09-19T02:01:22;100266.88;;;17.14;100.00
7052;BME280;3567;52.444;13.556;2023-09-19T02:03:48;100261.72;;;17.18;100.00
7052;BME280;3567;52.444;13.556;2023-09-19T02:06:15;100267.94;;;17.18;100.00
7052;BME280;3567;52.444;13.556;2023-09-19T02:08:42;100266.31;;;17.17;100.00
7052;BME280;3567;52.444;13.556;2023-09-19T02:11:08;100264.69;;;17.16;100.00
7052;BME280;3567;52.444;13.556;2023-09-19T02:13:34;100270.13;;;17.16;100.00
7052;BME280;3567;52.444;13.556;2023-09-19T02:15:59;100271.47;;;17.14;100.00
7052;BME280;3567;52.444;13.556;2023-09-19T02:18:25;100274.47;;;17.12;100.00
7052;BME280;3567;52.444;13.556;2023-09-19T02:20:53;100273.97;;;17.10;100.00
7052;BME280;3567;52.444;13.556;2023-09-19T02:23:18;100275.03;;;17.09;100.00
7052;BME280;3567;52.444;13.556;2023-09-19T02:25:51;100283.44;;;17.08;100.00
7052;BME280;3567;52.444;13.556;2023-09-19T02:28:17;100281.81;;;17.07;100.00
7052;BME280;3567;52.444;13.556;2023-09-19T02:30:42;100288.34;;;17.06;100.00
7052;BME280;3567;52.444;13.556;2023-09-19T02:33:07;100289.13;;;17.06;100.00
7052;BME280;3567;52.444;13.556;2023-09-19T02:35:33;100289.13;;;17.06;100.00
7052;BME280;3567;52.444;13.556;2023-09-19T02:38:01;100299.16;;;17.06;100.00
7052;BME280;3567;52.444;13.556;2023-09-19T02:40:28;100289.69;;;17.03;100.00
7052;BME280;3567;52.444;13.556;2023-09-19T02:42:55;100292.41;;;17.03;100.00
7052;BME280;3567;52.444;13.556;2023-09-19T02:45:21;100294.88;;;16.99;100.00
7052;BME280;3567;52.444;13.556;2023-09-19T02:47:48;100292.97;;;17.00;100.00
7052;BME280;3567;52.444;13.556;2023-09-19T02:50:15;100295.13;;;16.98;100.00
7052;BME280;3567;52.444;13.556;2023-09-19T02:52:45;100309.75;;;16.97;100.00
7052;BME280;3567;52.444;13.556;2023-09-19T02:55:17;100314.09;;;16.93;100.00
7052;BME280;3567;52.444;13.556;2023-09-19T02:57:50;100307.09;;;16.92;100.00
7052;BME280;3567;52.444;13.556;2023-09-19T03:00:18;100316.31;;;16.91;100.00
7052;BME280;3567;52.444;13.556;2023-09-19T03:02:52;100329.03;;;16.90;100.00
7052;BME280;3567;52.444;13.556;2023-09-19T03:05:18;100317.66;;;16.88;100.00
7052;BME280;3567;52.444;13.556;2023-09-19T03:07:44;100319.84;;;16.86;100.00
7052;BME280;3567;52.444;13.556;2023-09-19T03:10:12;100323.34;;;16.87;100.00
7052;BME280;3567;52.444;13.556;2023-09-19T03:12:38;100323.34;;;16.87;100.00
7052;BME280;3567;52.444;13.556;2023-09-19T03:15:05;100320.13;;;16.85;100.00
7052;BME280;3567;52.444;13.556;2023-09-19T03:17:31;100329.09;;;16.80;100.00
7052;BME280;3567;52.444;13.556;2023-09-19T03:19:57;100327.47;;;16.79;100.00
7052;BME280;3567;52.444;13.556;2023-09-19T03:22:23;100327.72;;;16.77;100.00
7052;BME280;3567;52.444;13.556;2023-09-19T03:24:50;100325.56;;;16.80;100.00
7052;BME280;3567;52.444;13.556;2023-09-19T03:27:15;100319.63;;;16.77;100.00
7052;BME280;3567;52.444;13.556;2023-09-19T03:29:42;100320.72;;;16.76;100.00
7052;BME280;3567;52.444;13.556;2023-09-19T03:32:07;100329.91;;;16.75;100.00
7052;BME280;3567;52.444;13.556;2023-09-19T03:34:36;100330.19;;;16.74;100.00
7052;BME280;3567;52.444;13.556;2023-09-19T03:37:09;100335.91;;;16.72;100.00
7052;BME280;3567;52.444;13.556;2023-09-19T03:39:35;100328.84;;;16.71;100.00
7052;BME280;3567;52.444;13.556;2023-09-19T03:42:01;100333.19;;;16.72;100.00
7052;BME280;3567;52.444;13.556;2023-09-19T03:44:29;100335.06;;;16.72;100.00
7052;BME280;3567;52.444;13.556;2023-09-19T03:46:55;100336.72;;;16.73;100.00
7052;BME280;3567;52.444;13.556;2023-09-19T03:49:21;100334.25;;;16.71;100.00
7052;BME280;3567;52.444;13.556;2023-09-19T03:51:46;100341.31;;;16.72;100.00
7052;BME280;3567;52.444;13.556;2023-09-19T03:54:12;100348.34;;;16.73;100.00
7052;BME280;3567;52.444;13.556;2023-09-19T03:56:37;100352.06;;;16.77;100.00
7052;BME280;3567;52.444;13.556;2023-09-19T03:59:03;100345.03;;;16.82;100.00
7052;BME280;3567;52.444;13.556;2023-09-19T04:01:28;100347.69;;;16.87;100.00
7052;BME280;3567;52.444;13.556;2023-09-19T04:03:57;100340.94;;;16.89;100.00
7052;BME280;3567;52.444;13.556;2023-09-19T04:06:22;100348.22;;;16.94;100.00
7052;BME280;3567;52.444;13.556;2023-09-19T04:08:48;100351.44;;;16.96;100.00
7052;BME280;3567;52.444;13.556;2023-09-19T04:11:14;100350.88;;;16.99;100.00
7052;BME280;3567;52.444;13.556;2023-09-19T04:13:39;100347.06;;;17.05;100.00
7052;BME280;3567;52.444;13.556;2023-09-19T04:16:04;100354.88;;;17.07;99.92
7052;BME280;3567;52.444;13.556;2023-09-19T04:18:32;100358.13;;;17.09;98.71
7052;BME280;3567;52.444;13.556;2023-09-19T04:21:02;100358.38;;;17.12;98.25
7052;BME280;3567;52.444;13.556;2023-09-19T04:23:29;100358.38;;;17.12;97.62
7052;BME280;3567;52.444;13.556;2023-09-19T04:25:55;100361.63;;;17.09;97.41
7052;BME280;3567;52.444;13.556;2023-09-19T04:28:20;100364.34;;;17.09;97.28
7052;BME280;3567;52.444;13.556;2023-09-19T04:30:45;100361.09;;;17.07;97.21
7052;BME280;3567;52.444;13.556;2023-09-19T04:33:11;100375.19;;;17.04;96.94
7052;BME280;3567;52.444;13.556;2023-09-19T04:35:39;100381.97;;;17.01;96.88
7052;BME280;3567;52.444;13.556;2023-09-19T04:38:07;100378.75;;;16.99;96.99
7052;BME280;3567;52.444;13.556;2023-09-19T04:40:33;100383.09;;;16.95;97.04
7052;BME280;3567;52.444;13.556;2023-09-19T04:42:59;100393.38;;;16.93;96.98
7052;BME280;3567;52.444;13.556;2023-09-19T04:45:26;100394.25;;;16.89;97.28
7052;BME280;3567;52.444;13.556;2023-09-19T04:47:52;100393.16;;;16.85;97.44
7052;BME280;3567;52.444;13.556;2023-09-19T04:50:18;100396.16;;;16.83;97.84
7052;BME280;3567;52.444;13.556;2023-09-19T04:52:44;100395.91;;;16.80;97.92
7052;BME280;3567;52.444;13.556;2023-09-19T04:55:14;100402.66;;;16.77;97.49
7052;BME280;3567;52.444;13.556;2023-09-19T04:57:50;100400.81;;;16.72;97.80
7052;BME280;3567;52.444;13.556;2023-09-19T05:00:17;100403.78;;;16.71;97.61
7052;BME280;3567;52.444;13.556;2023-09-19T05:02:52;100403.22;;;16.69;97.96
7052;BME280;3567;52.444;13.556;2023-09-19T05:05:18;100401.88;;;16.66;97.37
7052;BME280;3567;52.444;13.556;2023-09-19T05:07:44;100411.06;;;16.65;97.25
7052;BME280;3567;52.444;13.556;2023-09-19T05:10:10;100412.44;;;16.68;96.59
7052;BME280;3567;52.444;13.556;2023-09-19T05:12:37;100421.06;;;16.70;96.43
7052;BME280;3567;52.444;13.556;2023-09-19T05:15:06;100416.47;;;16.70;96.44
7052;BME280;3567;52.444;13.556;2023-09-19T05:17:35;100417.03;;;16.72;96.22
7052;BME280;3567;52.444;13.556;2023-09-19T05:20:01;100429.97;;;16.70;96.18
7052;BME280;3567;52.444;13.556;2023-09-19T05:22:43;100433.78;;;16.69;96.02
7052;BME280;3567;52.444;13.556;2023-09-19T05:25:12;100440.28;;;16.68;95.99
7052;BME280;3567;52.444;13.556;2023-09-19T05:27:44;100445.13;;;16.66;96.50
7052;BME280;3567;52.444;13.556;2023-09-19T05:30:10;100451.09;;;16.63;96.01
7052;BME280;3567;52.444;13.556;2023-09-19T05:32:36;100446.50;;;16.64;95.57
7052;BME280;3567;52.444;13.556;2023-09-19T05:35:01;100455.16;;;16.61;96.17
7052;BME280;3567;52.444;13.556;2023-09-19T05:37:27;100451.66;;;16.60;95.67
7052;BME280;3567;52.444;13.556;2023-09-19T05:39:54;100455.44;;;16.59;95.17
7052;BME280;3567;52.444;13.556;2023-09-19T05:42:20;100463.84;;;16.58;95.45
7052;BME280;3567;52.444;13.556;2023-09-19T05:44:45;100463.03;;;16.57;95.47
7052;BME280;3567;52.444;13.556;2023-09-19T05:47:10;100466.78;;;16.56;95.44
7052;BME280;3567;52.444;13.556;2023-09-19T05:49:36;100465.19;;;16.55;95.01
7052;BME280;3567;52.444;13.556;2023-09-19T05:52:08;100472.19;;;16.56;94.41
7052;BME280;3567;52.444;13.556;2023-09-19T05:54:33;100483.84;;;16.57;94.71
7052;BME280;3567;52.444;13.556;2023-09-19T05:57:03;100477.34;;;16.58;94.68
7052;BME280;3567;52.444;13.556;2023-09-19T05:59:28;100493.31;;;16.59;93.86
7052;BME280;3567;52.444;13.556;2023-09-19T06:01:54;100498.72;;;16.59;94.25
7052;BME280;3567;52.444;13.556;2023-09-19T06:04:20;100501.94;;;16.61;93.98
7052;BME280;3567;52.444;13.556;2023-09-19T06:06:46;100500.03;;;16.62;93.64
7052;BME280;3567;52.444;13.556;2023-09-19T06:09:14;100504.94;;;16.60;93.37
7052;BME280;3567;52.444;13.556;2023-09-19T06:11:41;100507.34;;;16.61;94.06
7052;BME280;3567;52.444;13.556;2023-09-19T06:14:07;100509.81;;;16.63;93.10
7052;BME280;3567;52.444;13.556;2023-09-19T06:16:32;100519.25;;;16.65;93.09
7052;BME280;3567;52.444;13.556;2023-09-19T06:18:58;100520.84;;;16.66;92.32
7052;BME280;3567;52.444;13.556;2023-09-19T06:21:27;100522.53;;;16.72;92.65
7052;BME280;3567;52.444;13.556;2023-09-19T06:23:53;100536.56;;;16.74;91.96
7052;BME280;3567;52.444;13.556;2023-09-19T06:26:21;100534.94;;;16.79;92.25
7052;BME280;3567;52.444;13.556;2023-09-19T06:28:46;100537.38;;;16.80;91.97
7052;BME280;3567;52.444;13.556;2023-09-19T06:31:12;100539.25;;;16.85;91.82
7052;BME280;3567;52.444;13.556;2023-09-19T06:33:38;100545.75;;;16.89;91.00
7052;BME280;3567;52.444;13.556;2023-09-19T06:36:05;100541.94;;;16.90;91.23
7052;BME280;3567;52.444;13.556;2023-09-19T06:38:30;100547.88;;;16.92;90.17
7052;BME280;3567;52.444;13.556;2023-09-19T06:40:58;100553.84;;;16.94;89.94
7052;BME280;3567;52.444;13.556;2023-09-19T06:43:23;100543.84;;;16.94;89.72
7052;BME280;3567;52.444;13.556;2023-09-19T06:45:49;100547.56;;;16.98;89.96
7052;BME280;3567;52.444;13.556;2023-09-19T06:48:16;100550.56;;;17.02;89.34
7052;BME280;3567;52.444;13.556;2023-09-19T06:50:42;100554.06;;;17.08;89.49
7052;BME280;3567;52.444;13.556;2023-09-19T06:53:09;100558.63;;;17.12;89.63
7052;BME280;3567;52.444;13.556;2023-09-19T06:55:35;100563.47;;;17.20;88.78
7052;BME280;3567;52.444;13.556;2023-09-19T06:58:01;100561.84;;;17.24;88.41
7052;BME280;3567;52.444;13.556;2023-09-19T07:00:27;100562.63;;;17.30;88.12
7052;BME280;3567;52.444;13.556;2023-09-19T07:03:08;100568.31;;;17.34;87.68
7052;BME280;3567;52.444;13.556;2023-09-19T07:05:37;100566.09;;;17.41;88.43
7052;BME280;3567;52.444;13.556;2023-09-19T07:08:03;100567.69;;;17.47;87.89
7052;BME280;3567;52.444;13.556;2023-09-19T07:10:29;100566.03;;;17.56;87.46
7052;BME280;3567;52.444;13.556;2023-09-19T07:13:03;100567.88;;;17.66;86.50
7052;BME280;3567;52.444;13.556;2023-09-19T07:15:32;100572.41;;;17.86;86.70
7052;BME280;3567;52.444;13.556;2023-09-19T07:18:00;100570.59;;;18.10;86.62
7052;BME280;3567;52.444;13.556;2023-09-19T07:20:26;100570.38;;;18.36;85.75
7052;BME280;3567;52.444;13.556;2023-09-19T07:22:52;100571.78;;;18.62;84.63
7052;BME280;3567;52.444;13.556;2023-09-19T07:25:20;100577.03;;;18.82;82.54
7052;BME280;3567;52.444;13.556;2023-09-19T07:27:45;100571.94;;;19.00;82.23
7052;BME280;3567;52.444;13.556;2023-09-19T07:30:11;100582.03;;;19.23;81.71
7052;BME280;3567;52.444;13.556;2023-09-19T07:32:37;100583.88;;;19.47;81.20
7052;BME280;3567;52.444;13.556;2023-09-19T07:35:04;100586.66;;;19.66;79.72
7052;BME280;3567;52.444;13.556;2023-09-19T07:37:31;100592.03;;;19.89;78.30
7052;BME280;3567;52.444;13.556;2023-09-19T07:39:59;100589.16;;;20.00;76.72
7052;BME280;3567;52.444;13.556;2023-09-19T07:42:24;100583.81;;;19.95;76.40
7052;BME280;3567;52.444;13.556;2023-09-19T07:44:51;100594.09;;;19.79;75.89
7052;BME280;3567;52.444;13.556;2023-09-19T07:47:16;100596.88;;;19.93;75.19
7052;BME280;3567;52.444;13.556;2023-09-19T07:49:42;100595.78;;;19.94;73.46
7052;BME280;3567;52.444;13.556;2023-09-19T07:52:08;100605.31;;;20.10;75.07
7052;BME280;3567;52.444;13.556;2023-09-19T07:54:34;100606.84;;;20.16;73.20
7052;BME280;3567;52.444;13.556;2023-09-19T07:57:04;100598.28;;;20.09;70.38
7052;BME280;3567;52.444;13.556;2023-09-19T07:59:29;100600.91;;;19.95;70.87
7052;BME280;3567;52.444;13.556;2023-09-19T08:01:55;100614.88;;;19.88;70.05
7052;BME280;3567;52.444;13.556;2023-09-19T08:04:20;100609.88;;;19.96;71.80
7052;BME280;3567;52.444;13.556;2023-09-19T08:06:45;100614.59;;;20.09;70.87
7052;BME280;3567;52.444;13.556;2023-09-19T08:09:11;100628.03;;;20.19;70.60
7052;BME280;3567;52.444;13.556;2023-09-19T08:11:41;100629.72;;;20.15;69.71
7052;BME280;3567;52.444;13.556;2023-09-19T08:14:06;100630.16;;;20.22;69.38
7052;BME280;3567;52.444;13.556;2023-09-19T08:16:32;100630.19;;;20.03;68.43
7052;BME280;3567;52.444;13.556;2023-09-19T08:18:58;100620.31;;;19.88;68.94
7052;BME280;3567;52.444;13.556;2023-09-19T08:21:23;100618.72;;;19.87;67.96
7052;BME280;3567;52.444;13.556;2023-09-19T08:23:49;100619.00;;;20.05;68.54
7052;BME280;3567;52.444;13.556;2023-09-19T08:26:15;100614.69;;;20.36;68.11
7052;BME280;3567;52.444;13.556;2023-09-19T08:28:40;100603.50;;;20.57;65.34
7052;BME280;3567;52.444;13.556;2023-09-19T08:31:07;100611.28;;;20.63;64.99
7052;BME280;3567;52.444;13.556;2023-09-19T08:33:36;100622.56;;;20.38;64.72
7052;BME280;3567;52.444;13.556;2023-09-19T08:36:03;100623.03;;;19.88;64.78
7052;BME280;3567;52.444;13.556;2023-09-19T08:38:33;100617.44;;;19.61;63.93
7052;BME280;3567;52.444;13.556;2023-09-19T08:41:00;100626.56;;;19.46;65.08
7052;BME280;3567;52.444;13.556;2023-09-19T08:43:28;100631.34;;;19.30;65.83
7052;BME280;3567;52.444;13.556;2023-09-19T08:46:09;100640.19;;;19.41;66.14
7052;BME280;3567;52.444;13.556;2023-09-19T08:48:39;100630.34;;;19.69;67.54
7052;BME280;3567;52.444;13.556;2023-09-19T08:51:12;100636.41;;;19.85;66.10
7052;BME280;3567;52.444;13.556;2023-09-19T08:53:54;100635.09;;;20.01;64.06
7052;BME280;3567;52.444;13.556;2023-09-19T08:56:26;100641.28;;;20.39;63.45
7052;BME280;3567;52.444;13.556;2023-09-19T08:58:56;100635.09;;;20.72;62.24
7052;BME280;3567;52.444;13.556;2023-09-19T09:01:23;100643.88;;;20.82;61.33
7052;BME280;3567;52.444;13.556;2023-09-19T09:03:56;100629.63;;;21.18;60.85
7052;BME280;3567;52.444;13.556;2023-09-19T09:06:23;100625.03;;;21.32;59.76
7052;BME280;3567;52.444;13.556;2023-09-19T09:08:50;100633.16;;;21.18;59.80
7052;BME280;3567;52.444;13.556;2023-09-19T09:11:16;100644.19;;;20.81;60.64
7052;BME280;3567;52.444;13.556;2023-09-19T09:13:43;100636.81;;;20.67;60.36
7052;BME280;3567;52.444;13.556;2023-09-19T09:16:10;100647.38;;;20.69;59.10
7052;BME280;3567;52.444;13.556;2023-09-19T09:18:35;100649.81;;;21.17;59.54
7052;BME280;3567;52.444;13.556;2023-09-19T09:21:01;100644.88;;;21.60;57.36
7052;BME280;3567;52.444;13.556;2023-09-19T09:23:27;100650.16;;;21.93;56.56
7052;BME280;3567;52.444;13.556;2023-09-19T09:25:55;100647.97;;;21.81;56.10
7052;BME280;3567;52.444;13.556;2023-09-19T09:28:34;100651.41;;;21.73;56.54
7052;BME280;3567;52.444;13.556;2023-09-19T09:31:01;100647.72;;;21.41;55.23
7052;BME280;3567;52.444;13.556;2023-09-19T09:33:34;100647.06;;;21.17;57.44
7052;BME280;3567;52.444;13.556;2023-09-19T09:36:02;100657.09;;;21.49;57.38
7052;BME280;3567;52.444;13.556;2023-09-19T09:38:47;100646.84;;;21.96;55.11
7052;BME280;3567;52.444;13.556;2023-09-19T09:41:35;100662.91;;;21.97;54.16
7052;BME280;3567;52.444;13.556;2023-09-19T09:44:12;100652.78;;;21.98;52.13
7052;BME280;3567;52.444;13.556;2023-09-19T09:46:42;100666.16;;;21.72;53.03
7052;BME280;3567;52.444;13.556;2023-09-19T09:49:24;100654.69;;;21.34;52.52
7052;BME280;3567;52.444;13.556;2023-09-19T09:52:05;100656.91;;;21.32;53.82
7052;BME280;3567;52.444;13.556;2023-09-19T09:54:33;100662.00;;;21.06;54.83
7052;BME280;3567;52.444;13.556;2023-09-19T09:57:02;100664.78;;;21.33;54.78
7052;BME280;3567;52.444;13.556;2023-09-19T09:59:54;100645.25;;;21.81;53.57
7052;BME280;3567;52.444;13.556;2023-09-19T10:02:25;100647.66;;;21.96;52.14
7052;BME280;3567;52.444;13.556;2023-09-19T10:04:57;100647.09;;;22.22;51.54
7052;BME280;3567;52.444;13.556;2023-09-19T10:07:34;100652.56;;;22.44;51.12
7052;BME280;3567;52.444;13.556;2023-09-19T10:10:06;100646.09;;;22.63;50.19
7052;BME280;3567;52.444;13.556;2023-09-19T10:12:44;100642.94;;;22.47;50.22
7052;BME280;3567;52.444;13.556;2023-09-19T10:15:15;100648.22;;;22.43;50.91
7052;BME280;3567;52.444;13.556;2023-09-19T10:17:44;100660.13;;;22.92;51.20
7052;BME280;3567;52.444;13.556;2023-09-19T10:20:13;100644.88;;;23.31;48.57
7052;BME280;3567;52.444;13.556;2023-09-19T10:22:50;100638.94;;;23.29;48.00
7052;BME280;3567;52.444;13.556;2023-09-19T10:25:25;100638.03;;;23.51;47.23
7052;BME280;3567;52.444;13.556;2023-09-19T10:27:52;100637.56;;;23.58;46.20
7052;BME280;3567;52.444;13.556;2023-09-19T10:30:22;100638.22;;;23.55;45.94
7052;BME280;3567;52.444;13.556;2023-09-19T10:33:03;100643.38;;;23.65;46.55
7052;BME280;3567;52.444;13.556;2023-09-19T10:35:29;100624.59;;;23.89;44.47
7052;BME280;3567;52.444;13.556;2023-09-19T10:38:00;100639.59;;;23.92;43.92
7052;BME280;3567;52.444;13.556;2023-09-19T10:40:29;100625.88;;;23.74;44.65
7052;BME280;3567;52.444;13.556;2023-09-19T10:43:03;100629.91;;;23.94;44.64
7052;BME280;3567;52.444;13.556;2023-09-19T10:45:35;100620.75;;;23.82;44.08
7052;BME280;3567;52.444;13.556;2023-09-19T10:48:01;100614.69;;;23.53;44.82
7052;BME280;3567;52.444;13.556;2023-09-19T10:50:37;100613.25;;;23.39;44.69
7052;BME280;3567;52.444;13.556;2023-09-19T10:53:07;100621.13;;;23.40;44.57
7052;BME280;3567;52.444;13.556;2023-09-19T10:55:36;100619.16;;;23.32;43.16
7052;BME280;3567;52.444;13.556;2023-09-19T10:58:03;100609.16;;;23.19;42.32
7052;BME280;3567;52.444;13.556;2023-09-19T11:00:56;100618.66;;;23.30;41.77
7052;BME280;3567;52.444;13.556;2023-09-19T11:03:23;100620.91;;;23.28;42.83
7052;BME280;3567;52.444;13.556;2023-09-19T11:09:03;100615.97;;;22.99;42.12
7052;BME280;3567;52.444;13.556;2023-09-19T11:11:45;100609.38;;;23.00;42.05
7052;BME280;3567;52.444;13.556;2023-09-19T11:33:31;100623.56;;;23.02;41.58
7052;BME280;3567;52.444;13.556;2023-09-19T11:46:33;100636.53;;;22.96;42.82
7052;BME280;3567;52.444;13.556;2023-09-19T11:49:09;100633.56;;;23.15;41.71
7052;BME280;3567;52.444;13.556;2023-09-19T11:51:55;100640.88;;;23.37;41.62
7052;BME280;3567;52.444;13.556;2023-09-19T11:54:20;100647.78;;;23.43;42.35
7052;BME280;3567;52.444;13.556;2023-09-19T11:56:53;100639.97;;;23.50;41.87
7052;BME280;3567;52.444;13.556;2023-09-19T11:59:27;100636.75;;;23.09;40.31
7052;BME280;3567;52.444;13.556;2023-09-19T12:01:56;100639.13;;;22.79;41.88
7052;BME280;3567;52.444;13.556;2023-09-19T12:07:15;100647.03;;;22.36;42.96
7052;BME280;3567;52.444;13.556;2023-09-19T12:09:50;100643.13;;;22.51;42.69
7052;BME280;3567;52.444;13.556;2023-09-19T12:12:23;100642.28;;;22.64;43.05
7052;BME280;3567;52.444;13.556;2023-09-19T12:14:49;100644.81;;;22.38;42.60
7052;BME280;3567;52.444;13.556;2023-09-19T12:17:16;100646.31;;;22.21;42.78
7052;BME280;3567;52.444;13.556;2023-09-19T12:19:51;100649.84;;;22.08;43.33
7052;BME280;3567;52.444;13.556;2023-09-19T12:22:16;100651.38;;;22.01;43.71
7052;BME280;3567;52.444;13.556;2023-09-19T12:24:43;100649.88;;;21.94;43.38
7052;BME280;3567;52.444;13.556;2023-09-19T12:27:09;100653.59;;;21.98;43.82
7052;BME280;3567;52.444;13.556;2023-09-19T12:29:47;100645.72;;;21.97;43.47
7052;BME280;3567;52.444;13.556;2023-09-19T12:32:34;100644.19;;;22.05;43.35
7052;BME280;3567;52.444;13.556;2023-09-19T12:34:59;100651.06;;;22.16;44.09
7052;BME280;3567;52.444;13.556;2023-09-19T12:37:25;100641.25;;;22.15;42.88
7052;BME280;3567;52.444;13.556;2023-09-19T12:40:07;100644.88;;;22.24;42.95
7052;BME280;3567;52.444;13.556;2023-09-19T12:42:43;100638.78;;;22.49;42.90
7052;BME280;3567;52.444;13.556;2023-09-19T12:45:10;100640.28;;;22.56;42.48
7052;BME280;3567;52.444;13.556;2023-09-19T12:47:38;100637.53;;;22.78;42.31
7052;BME280;3567;52.444;13.556;2023-09-19T12:50:13;100631.84;;;22.66;40.74
7052;BME280;3567;52.444;13.556;2023-09-19T12:52:42;100637.66;;;22.73;42.42
7052;BME280;3567;52.444;13.556;2023-09-19T12:55:09;100631.44;;;22.81;42.05
7052;BME280;3567;52.444;13.556;2023-09-19T12:57:44;100633.78;;;22.74;41.55
7052;BME280;3567;52.444;13.556;2023-09-19T13:00:20;100627.78;;;22.63;42.30
7052;BME280;3567;52.444;13.556;2023-09-19T13:05:54;100625.19;;;22.81;41.68
7052;BME280;3567;52.444;13.556;2023-09-19T13:08:28;100624.84;;;22.82;41.33
7052;BME280;3567;52.444;13.556;2023-09-19T13:11:17;100624.25;;;22.85;40.69
7052;BME280;3567;52.444;13.556;2023-09-19T13:13:51;100632.44;;;22.85;41.93
7052;BME280;3567;52.444;13.556;2023-09-19T13:16:21;100626.84;;;22.90;41.26
7052;BME280;3567;52.444;13.556;2023-09-19T13:18:52;100624.84;;;22.82;41.81
7052;BME280;3567;52.444;13.556;2023-09-19T13:21:38;100631.81;;;22.88;42.67
7052;BME280;3567;52.444;13.556;2023-09-19T13:24:25;100637.16;;;22.93;42.20
7052;BME280;3567;52.444;13.556;2023-09-19T13:26:55;100637.38;;;23.06;42.32
7052;BME280;3567;52.444;13.556;2023-09-19T13:29:21;100623.41;;;22.85;39.89
7052;BME280;3567;52.444;13.556;2023-09-19T13:31:52;100628.31;;;22.65;41.48
7052;BME280;3567;52.444;13.556;2023-09-19T13:34:20;100641.53;;;22.49;41.80
7052;BME280;3567;52.444;13.556;2023-09-19T13:36:46;100640.53;;;22.45;42.52
7052;BME280;3567;52.444;13.556;2023-09-19T13:39:15;100639.41;;;22.46;42.24
7052;BME280;3567;52.444;13.556;2023-09-19T13:41:41;100625.28;;;22.08;41.44
7052;BME280;3567;52.444;13.556;2023-09-19T13:44:08;100634.50;;;21.98;42.44
7052;BME280;3567;52.444;13.556;2023-09-19T13:46:36;100643.47;;;21.99;43.36
7052;BME280;3567;52.444;13.556;2023-09-19T13:49:02;100639.84;;;22.04;43.58
7052;BME280;3567;52.444;13.556;2023-09-19T13:51:29;100630.38;;;22.01;41.65
7052;BME280;3567;52.444;13.556;2023-09-19T13:53:55;100632.69;;;21.94;42.99
7052;BME280;3567;52.444;13.556;2023-09-19T13:56:20;100636.84;;;21.91;42.82